Time;durP1;ratioP1;P1;durP2;ratioP2;P2;SDS_P1;SDS_P2;PMS_P1;PMS_P2;Temp;Humidity;BMP_temperature;BMP_pressure;BME280_temperature;BME280_humidity;BME280_pressure;Samples;Min_cycle;Max_cycle;Signal;HPM_P1;HPM_P2
2023/06/22 00:02:14;;;;;;;;;;;18.90;99.90;;;;;;5004180;28;20444;-71
2023/06/22 00:04:40;;;;;;;16.65;11.18;;;18.80;99.90;;;;;;5002949;28;20004;-71
2023/06/22 00:07:05;;;;;;;17.55;11.68;;;18.70;99.90;;;;;;5006241;28;20038;-71
2023/06/22 00:09:40;;;;;;;20.90;12.73;;;18.70;99.90;;;;;;5005338;28;20053;-71
2023/06/22 00:12:06;;;;;;;18.63;12.10;;;18.70;99.90;;;;;;5001018;28;20054;-71
2023/06/22 00:14:32;;;;;;;;;;;18.70;99.90;;;;;;5004286;28;20058;-71
2023/06/22 00:16:58;;;;;;;22.30;12.10;;;18.60;99.90;;;;;;4988229;28;19977;-71
2023/06/22 00:19:24;;;;;;;23.58;12.43;;;18.60;99.90;;;;;;4993063;28;20508;-71
2023/06/22 00:21:53;;;;;;;24.17;12.13;;;18.70;99.90;;;;;;5016668;28;20056;-71
2023/06/22 00:24:24;;;;;;;16.92;12.40;;;18.60;99.90;;;;;;4999503;28;20196;-70
2023/06/22 00:26:49;;;;;;;20.92;13.35;;;18.60;99.90;;;;;;5002756;28;20033;-71
2023/06/22 00:29:15;;;;;;;20.38;13.43;;;18.60;99.90;;;;;;4999303;28;20038;-71
2023/06/22 00:31:41;;;;;;;20.27;13.48;;;18.60;99.90;;;;;;5000216;28;20284;-71
2023/06/22 00:34:08;;;;;;;19.90;13.50;;;18.60;99.90;;;;;;5001208;28;20047;-71
2023/06/22 00:36:34;;;;;;;23.00;14.63;;;18.60;99.90;;;;;;4996568;28;20054;-71
2023/06/22 00:39:00;;;;;;;21.83;13.50;;;18.50;99.90;;;;;;5007885;28;20049;-71
2023/06/22 00:41:28;;;;;;;22.45;14.07;;;18.50;99.90;;;;;;5002590;28;20064;-71
2023/06/22 00:43:54;;;;;;;22.70;13.00;;;18.60;99.90;;;;;;5005700;28;20042;-71
2023/06/22 00:46:20;;;;;;;20.70;13.02;;;18.50;99.90;;;;;;4996136;28;20049;-71
2023/06/22 00:48:46;;;;;;;21.55;14.25;;;18.50;99.90;;;;;;5001307;28;20459;-71
2023/06/22 00:51:14;;;;;;;20.42;13.35;;;18.50;99.90;;;;;;4998578;28;20061;-71
2023/06/22 00:53:41;;;;;;;22.17;13.35;;;18.50;99.90;;;;;;4996032;28;20045;-71
2023/06/22 00:56:08;;;;;;;21.27;13.45;;;18.50;99.90;;;;;;5003412;28;20041;-71
2023/06/22 00:58:35;;;;;;;21.40;13.07;;;18.40;99.90;;;;;;5008303;28;20466;-71
2023/06/22 01:01:02;;;;;;;20.98;13.48;;;18.40;99.90;;;;;;4999104;28;20052;-71
2023/06/22 01:03:28;;;;;;;20.25;13.25;;;18.40;99.90;;;;;;5002178;28;20095;-71
2023/06/22 01:06:02;;;;;;;22.02;13.40;;;18.30;99.90;;;;;;5007655;28;20444;-71
2023/06/22 01:09:06;;;;;;;22.17;13.80;;;18.30;99.90;;;;;;5003912;28;20103;-71
2023/06/22 01:11:39;;;;;;;22.42;13.48;;;18.30;99.90;;;;;;5001168;28;20165;-71
2023/06/22 01:14:15;;;;;;;22.48;12.57;;;18.30;99.90;;;;;;5004249;28;20084;-71
2023/06/22 01:16:42;;;;;;;20.33;13.15;;;18.20;99.90;;;;;;4995093;28;20447;-71
2023/06/22 01:19:29;;;;;;;18.50;13.25;;;18.20;99.90;;;;;;5003252;28;20372;-71
2023/06/22 01:21:56;;;;;;;21.67;13.27;;;18.20;99.90;;;;;;4999051;28;20083;-71
2023/06/22 01:24:40;;;;;;;23.35;13.63;;;18.10;99.90;;;;;;4998015;28;20046;-71
2023/06/22 01:27:32;;;;;;;18.05;12.57;;;18.10;99.90;;;;;;5001305;28;20093;-71
2023/06/22 01:30:00;;;;;;;21.05;13.13;;;18.10;99.90;;;;;;4999538;28;20050;-71
2023/06/22 01:32:37;;;;;;;19.65;12.07;;;18.10;99.90;;;;;;4991291;28;20034;-70
2023/06/22 01:35:05;;;;;;;19.85;13.18;;;18.10;99.90;;;;;;5000168;28;20038;-70
2023/06/22 01:37:34;;;;;;;19.10;12.93;;;18.00;99.90;;;;;;4999222;28;20133;-70
2023/06/22 01:40:01;;;;;;;22.90;13.57;;;18.00;99.90;;;;;;5008244;28;20106;-70
2023/06/22 01:42:30;;;;;;;20.02;13.52;;;18.00;99.90;;;;;;4997314;28;20073;-70
2023/06/22 01:44:56;;;;;;;18.95;13.40;;;18.00;99.90;;;;;;4999829;28;20607;-70
2023/06/22 01:47:27;;;;;;;17.70;12.52;;;18.00;99.90;;;;;;5002992;28;20048;-70
2023/06/22 01:49:53;;;;;;;18.00;12.60;;;17.90;99.90;;;;;;5004769;28;20346;-70
2023/06/22 01:52:20;;;;;;;;;;;17.90;99.90;;;;;;5002149;28;20487;-70
2023/06/22 01:54:48;;;;;;;15.48;11.00;;;17.80;99.90;;;;;;5003832;28;19968;-70
2023/06/22 01:57:14;;;;;;;15.80;11.73;;;17.80;99.90;;;;;;4999436;28;20048;-70
2023/06/22 02:00:00;;;;;;;16.75;11.85;;;17.70;99.90;;;;;;4985742;28;20518;-70
2023/06/22 02:02:39;;;;;;;16.90;12.00;;;17.70;99.90;;;;;;4999183;28;20543;-70
2023/06/22 02:05:10;;;;;;;18.50;12.52;;;17.60;99.90;;;;;;5010390;28;20046;-70
2023/06/22 02:07:49;;;;;;;15.85;12.38;;;17.60;99.90;;;;;;4998569;28;20034;-70
2023/06/22 02:10:19;;;;;;;17.02;12.20;;;17.50;99.90;;;;;;5001982;28;20034;-70
2023/06/22 02:12:46;;;;;;;15.85;12.40;;;17.50;99.90;;;;;;5005017;28;20516;-70
2023/06/22 02:15:12;;;;;;;18.50;12.93;;;17.40;99.90;;;;;;4991351;28;20140;-70
2023/06/22 02:17:38;;;;;;;17.08;12.55;;;17.40;99.90;;;;;;5007327;28;20056;-71
2023/06/22 02:20:08;;;;;;;17.92;12.70;;;17.30;99.90;;;;;;5001592;28;20045;-70
2023/06/22 02:22:34;;;;;;;18.35;12.77;;;17.30;99.90;;;;;;4996318;28;20061;-70
2023/06/22 02:25:00;;;;;;;19.83;13.65;;;17.30;99.90;;;;;;5000192;28;20030;-76
2023/06/22 02:27:26;;;;;;;18.50;12.90;;;17.30;99.90;;;;;;5003764;28;20112;-72
2023/06/22 02:29:51;;;;;;;16.73;12.07;;;17.30;99.90;;;;;;5006377;28;20124;-71
2023/06/22 02:32:17;;;;;;;18.27;12.27;;;17.20;99.90;;;;;;5003710;28;20045;-71
2023/06/22 02:34:47;;;;;;;18.13;12.25;;;17.20;99.90;;;;;;4991703;28;20048;-70
2023/06/22 02:37:16;;;;;;;17.77;12.77;;;17.20;99.90;;;;;;4998834;28;20068;-71
2023/06/22 02:39:41;;;;;;;17.40;12.98;;;17.20;99.90;;;;;;5007726;28;20503;-71
2023/06/22 02:42:07;;;;;;;18.83;13.15;;;17.20;99.90;;;;;;5005310;28;20083;-71
2023/06/22 02:44:33;;;;;;;16.23;12.02;;;17.20;99.90;;;;;;5006548;28;20048;-70
2023/06/22 02:46:58;;;;;;;17.77;12.52;;;17.20;99.90;;;;;;5006152;28;20526;-70
2023/06/22 02:49:24;;;;;;;20.23;12.77;;;17.10;99.90;;;;;;5002069;28;20148;-71
2023/06/22 02:51:50;;;;;;;18.60;12.73;;;17.10;99.90;;;;;;5002964;28;20041;-71
2023/06/22 02:54:16;;;;;;;17.35;11.82;;;17.20;99.90;;;;;;4999505;28;20046;-70
2023/06/22 02:56:43;;;;;;;15.98;12.13;;;17.20;99.90;;;;;;4999656;28;20553;-71
2023/06/22 02:59:10;;;;;;;18.55;12.73;;;17.10;99.90;;;;;;5007608;28;20133;-71
2023/06/22 03:01:42;;;;;;;17.77;13.13;;;17.10;99.90;;;;;;5001204;28;20046;-70
2023/06/22 03:04:09;;;;;;;18.60;13.15;;;17.20;99.90;;;;;;4998443;28;20060;-70
2023/06/22 03:06:35;;;;;;;17.50;12.60;;;17.10;99.90;;;;;;4998693;28;20510;-70
2023/06/22 03:09:04;;;;;;;21.48;13.75;;;17.10;99.90;;;;;;4998711;28;20100;-70
2023/06/22 03:11:34;;;;;;;21.40;13.27;;;17.10;99.90;;;;;;5002686;28;20121;-70
2023/06/22 03:14:00;;;;;;;19.77;12.80;;;17.10;99.90;;;;;;5000509;28;20026;-70
2023/06/22 03:16:26;;;;;;;22.13;12.68;;;17.10;99.90;;;;;;5000989;28;20045;-70
2023/06/22 03:18:55;;;;;;;18.38;13.45;;;17.10;99.90;;;;;;5003072;28;20042;-70
2023/06/22 03:21:23;;;;;;;22.58;12.73;;;17.00;99.90;;;;;;5000923;28;20539;-70
2023/06/22 03:23:49;;;;;;;20.52;13.68;;;17.00;99.90;;;;;;5004440;28;20045;-70
2023/06/22 03:26:17;;;;;;;23.45;13.25;;;17.00;99.90;;;;;;5007139;28;20458;-70
2023/06/22 03:28:43;;;;;;;17.67;13.38;;;17.00;99.90;;;;;;5007303;28;20579;-70
2023/06/22 03:31:09;;;;;;;16.80;12.60;;;17.00;99.90;;;;;;5001024;28;20081;-70
2023/06/22 03:33:34;;;;;;;18.02;12.63;;;17.00;99.90;;;;;;5008336;28;20045;-70
2023/06/22 03:36:00;;;;;;;19.05;13.52;;;17.00;99.90;;;;;;5010302;28;20042;-70
2023/06/22 03:38:28;;;;;;;15.30;11.13;;;17.00;99.90;;;;;;5007592;28;20044;-70
2023/06/22 03:40:54;;;;;;;19.05;12.93;;;17.00;99.90;;;;;;5002737;28;20121;-70
2023/06/22 03:43:20;;;;;;;16.95;12.48;;;17.00;99.90;;;;;;5002583;28;20042;-70
2023/06/22 03:45:45;;;;;;;19.25;12.98;;;17.00;99.90;;;;;;5005668;28;20125;-70
2023/06/22 03:48:12;;;;;;;19.77;12.35;;;17.00;99.90;;;;;;5008771;28;20412;-70
2023/06/22 03:50:37;;;;;;;;;;;17.00;99.90;;;;;;5014097;28;20384;-70
2023/06/22 03:53:03;;;;;;;22.92;13.90;;;17.00;99.90;;;;;;5008743;28;19925;-70
2023/06/22 03:55:30;;;;;;;21.50;13.52;;;17.00;99.90;;;;;;4996381;28;20164;-71
2023/06/22 03:57:57;;;;;;;18.88;13.43;;;17.00;99.90;;;;;;5000481;28;20045;-70
2023/06/22 04:00:23;;;;;;;21.88;13.45;;;17.00;99.90;;;;;;5024455;28;20050;-70
2023/06/22 04:02:49;;;;;;;19.13;13.65;;;17.00;99.90;;;;;;5008108;28;20052;-70
2023/06/22 04:05:17;;;;;;;20.35;14.00;;;17.00;99.90;;;;;;5007904;28;20121;-70
2023/06/22 04:07:43;;;;;;;19.00;12.82;;;17.00;99.90;;;;;;5006045;28;20085;-70
2023/06/22 04:10:09;;;;;;;16.35;12.32;;;17.00;99.90;;;;;;5004295;28;20042;-70
2023/06/22 04:12:34;;;;;;;16.10;11.38;;;17.00;99.90;;;;;;5007912;28;20050;-70
2023/06/22 04:15:00;;;;;;;16.00;10.93;;;16.90;99.90;;;;;;5001620;28;20049;-70
2023/06/22 04:17:26;;;;;;;14.75;11.18;;;16.90;99.90;;;;;;4989847;28;20468;-70
2023/06/22 04:19:52;;;;;;;13.27;9.70;;;16.90;99.90;;;;;;5007140;28;20033;-70
2023/06/22 04:22:17;;;;;;;14.63;11.38;;;16.90;99.90;;;;;;5001558;28;20057;-70
2023/06/22 04:24:44;;;;;;;18.02;11.50;;;16.80;99.90;;;;;;5000126;28;20054;-70
2023/06/22 04:27:10;;;;;;;18.63;12.30;;;16.80;99.90;;;;;;5004816;28;20046;-70
2023/06/22 04:29:36;;;;;;;15.10;11.00;;;16.70;99.90;;;;;;4985482;28;20056;-70
2023/06/22 04:32:05;;;;;;;15.77;12.00;;;16.70;99.90;;;;;;5001058;28;20054;-70
2023/06/22 04:34:31;;;;;;;14.82;11.00;;;16.80;99.90;;;;;;5007834;28;20084;-70
2023/06/22 04:36:57;;;;;;;17.95;11.57;;;16.70;99.90;;;;;;4996743;28;20115;-70
2023/06/22 04:39:23;;;;;;;14.70;11.30;;;16.70;99.90;;;;;;5005076;28;20046;-70
2023/06/22 04:41:51;;;;;;;15.82;11.68;;;16.80;99.90;;;;;;5001526;28;20039;-69
2023/06/22 04:44:23;;;;;;;17.38;11.68;;;16.80;99.90;;;;;;5006062;28;20163;-70
2023/06/22 04:47:08;;;;;;;20.20;12.40;;;16.80;99.90;;;;;;5001013;28;20042;-69
2023/06/22 04:49:35;;;;;;;17.90;12.40;;;16.90;99.90;;;;;;4999644;28;20045;-70
2023/06/22 04:52:09;;;;;;;18.58;12.88;;;16.90;99.90;;;;;;5005184;28;20049;-70
2023/06/22 04:54:36;;;;;;;15.60;11.75;;;16.90;99.90;;;;;;5003303;28;20535;-70
2023/06/22 04:57:07;;;;;;;19.23;12.90;;;16.90;99.90;;;;;;5004231;28;20041;-70
2023/06/22 04:59:38;;;;;;;14.68;10.90;;;16.90;99.90;;;;;;4995623;28;20483;-69
2023/06/22 05:02:08;;;;;;;18.42;11.73;;;16.90;99.90;;;;;;5017309;28;20420;-69
2023/06/22 05:04:35;;;;;;;17.05;12.50;;;16.90;99.90;;;;;;5005512;28;20042;-70
2023/06/22 05:07:02;;;;;;;18.65;13.77;;;16.90;99.90;;;;;;5004220;28;20473;-69
2023/06/22 05:09:28;;;;;;;20.45;13.95;;;16.90;99.90;;;;;;4992153;28;20038;-69
2023/06/22 05:11:56;;;;;;;18.52;12.25;;;16.90;99.90;;;;;;5004798;28;20690;-70
2023/06/22 05:14:22;;;;;;;21.77;13.70;;;17.00;99.90;;;;;;4997281;28;20053;-69
2023/06/22 05:16:48;;;;;;;19.52;13.60;;;17.00;99.90;;;;;;5006535;28;20042;-70
2023/06/22 05:19:14;;;;;;;23.60;13.93;;;17.10;99.90;;;;;;4999064;28;20037;-70
2023/06/22 05:21:39;;;;;;;21.67;13.85;;;17.10;99.90;;;;;;4999781;28;20445;-70
2023/06/22 05:24:05;;;;;;;22.90;14.55;;;17.20;99.90;;;;;;4996511;28;20448;-70
2023/06/22 05:26:33;;;;;;;24.55;14.60;;;17.20;99.90;;;;;;5002282;28;20037;-70
2023/06/22 05:29:00;;;;;;;21.48;14.35;;;17.30;99.90;;;;;;4996052;28;20261;-70
2023/06/22 05:31:26;;;;;;;27.48;15.75;;;17.30;99.90;;;;;;4997110;28;20136;-70
2023/06/22 05:33:53;;;;;;;23.90;15.45;;;17.40;99.90;;;;;;5003623;28;20062;-70
2023/06/22 05:36:24;;;;;;;22.27;14.45;;;17.40;99.90;;;;;;5000186;28;20479;-70
2023/06/22 05:38:58;;;;;;;28.30;15.93;;;17.50;99.90;;;;;;5002419;28;20037;-70
2023/06/22 05:41:23;;;;;;;25.20;16.17;;;17.60;99.90;;;;;;4999138;28;20077;-70
2023/06/22 05:43:49;;;;;;;25.40;15.57;;;17.60;99.90;;;;;;4997281;28;20147;-69
2023/06/22 05:46:15;;;;;;;29.80;15.70;;;17.70;99.90;;;;;;4995694;28;20053;-70
2023/06/22 05:48:40;;;;;;;24.83;16.73;;;17.70;99.90;;;;;;5001172;28;20060;-71
2023/06/22 05:51:06;;;;;;;27.17;16.85;;;17.80;99.90;;;;;;4999204;28;20132;-70
2023/06/22 05:53:32;;;;;;;24.45;15.77;;;17.90;99.90;;;;;;5001754;28;20038;-71
2023/06/22 05:55:57;;;;;;;25.38;16.00;;;17.90;99.90;;;;;;5004995;28;20045;-70
2023/06/22 05:58:23;;;;;;;26.85;16.77;;;18.00;99.90;;;;;;4993371;28;20061;-72
2023/06/22 06:00:49;;;;;;;31.67;18.63;;;18.00;99.90;;;;;;5008246;28;20041;-72
2023/06/22 06:03:16;;;;;;;;;;;18.10;99.90;;;;;;5008699;28;20034;-72
2023/06/22 06:05:43;;;;;;;29.17;17.02;;;18.10;99.90;;;;;;5004157;28;19918;-72
2023/06/22 06:08:10;;;;;;;28.63;18.35;;;18.20;99.90;;;;;;5005474;28;20081;-72
2023/06/22 06:10:36;;;;;;;32.33;20.20;;;18.20;99.90;;;;;;4999528;28;20132;-74
2023/06/22 06:13:04;;;;;;;36.30;20.27;;;18.30;99.90;;;;;;5015265;28;20126;-70
2023/06/22 06:15:30;;;;;;;31.67;19.27;;;18.40;99.90;;;;;;5010860;28;20053;-70
2023/06/22 06:17:55;;;;;;;;;;;18.50;99.90;;;;;;5005986;28;20029;-70
2023/06/22 06:20:23;;;;;;;29.27;17.92;;;18.50;99.90;;;;;;5001091;28;19968;-69
2023/06/22 06:22:49;;;;;;;27.48;16.88;;;18.60;99.90;;;;;;5002501;28;20116;-70
2023/06/22 06:25:18;;;;;;;26.75;16.88;;;18.60;99.90;;;;;;5003491;28;20140;-72
2023/06/22 06:27:44;;;;;;;31.45;17.25;;;18.70;99.90;;;;;;5007497;28;20267;-73
2023/06/22 06:30:12;;;;;;;27.05;17.50;;;18.70;99.90;;;;;;5000677;28;20416;-73
2023/06/22 06:32:38;;;;;;;27.42;18.30;;;18.80;99.90;;;;;;5005738;28;20044;-73
2023/06/22 06:35:07;;;;;;;;;;;18.80;99.90;;;;;;5000027;28;20350;-71
2023/06/22 06:37:37;;;;;;;23.63;16.00;;;18.90;99.90;;;;;;5029741;28;19918;-73
2023/06/22 06:40:05;;;;;;;28.08;18.05;;;19.00;99.90;;;;;;5000992;28;20050;-72
2023/06/22 06:42:31;;;;;;;24.40;15.85;;;19.00;99.90;;;;;;5020047;28;20073;-75
2023/06/22 06:44:57;;;;;;;25.23;16.27;;;19.10;99.90;;;;;;5024311;28;20073;-71
2023/06/22 06:47:23;;;;;;;29.27;17.92;;;19.10;99.90;;;;;;4996350;28;20084;-72
2023/06/22 06:49:48;;;;;;;25.65;17.05;;;19.20;99.90;;;;;;5015770;28;20046;-72
2023/06/22 06:52:14;;;;;;;30.42;17.45;;;19.20;99.90;;;;;;4999725;28;20093;-73
2023/06/22 06:54:41;;;;;;;23.60;16.33;;;19.30;99.90;;;;;;4987806;28;20443;-72
2023/06/22 06:57:10;;;;;;;26.17;17.27;;;19.30;99.90;;;;;;5006200;28;20165;-72
2023/06/22 06:59:36;;;;;;;24.73;15.85;;;19.40;99.90;;;;;;5003290;28;20076;-73
2023/06/22 07:02:02;;;;;;;27.05;16.45;;;19.40;99.90;;;;;;5004654;28;20240;-74
2023/06/22 07:04:27;;;;;;;22.27;14.68;;;19.40;99.90;;;;;;5001157;28;20137;-72
2023/06/22 07:06:53;;;;;;;25.58;15.15;;;19.50;99.90;;;;;;5006637;28;20072;-76
2023/06/22 07:09:18;;;;;;;28.15;15.63;;;19.50;99.90;;;;;;5005008;28;20046;-72
2023/06/22 07:11:44;;;;;;;23.20;16.05;;;19.60;99.90;;;;;;5003246;28;20169;-75
2023/06/22 07:14:10;;;;;;;25.35;15.95;;;19.60;99.90;;;;;;5005190;28;20069;-74
2023/06/22 07:16:36;;;;;;;22.75;15.48;;;19.60;99.90;;;;;;4998189;28;20046;-75
2023/06/22 07:19:01;;;;;;;22.92;15.52;;;19.70;99.90;;;;;;5006082;28;20065;-75
2023/06/22 07:21:27;;;;;;;24.08;15.13;;;19.70;99.90;;;;;;5006848;28;20257;-74
2023/06/22 07:23:54;;;;;;;25.05;15.57;;;19.80;99.90;;;;;;4999507;28;20128;-72
2023/06/22 07:26:19;;;;;;;28.10;17.30;;;19.80;99.90;;;;;;5006900;28;20493;-75
2023/06/22 07:28:45;;;;;;;22.50;15.20;;;19.90;99.90;;;;;;5001646;28;20125;-71
2023/06/22 07:31:11;;;;;;;25.48;14.55;;;19.90;99.90;;;;;;5004579;28;20046;-71
2023/06/22 07:33:36;;;;;;;23.45;13.98;;;20.00;99.90;;;;;;4995709;28;20038;-71
2023/06/22 07:36:07;;;;;;;21.77;13.68;;;20.00;99.90;;;;;;4997921;28;20842;-71
2023/06/22 07:38:33;;;;;;;23.45;14.30;;;20.10;99.90;;;;;;4998207;28;20065;-71
2023/06/22 07:40:59;;;;;;;22.65;14.10;;;20.10;99.90;;;;;;5001331;28;20058;-70
2023/06/22 07:43:25;;;;;;;24.52;14.60;;;20.20;99.90;;;;;;5021261;22;20091;-73
2023/06/22 07:45:54;;;;;;;24.40;14.43;;;20.30;99.90;;;;;;5021497;28;20156;-73
2023/06/22 07:48:23;;;;;;;22.33;13.88;;;20.30;99.90;;;;;;5026218;28;20049;-73
2023/06/22 07:50:49;;;;;;;23.75;14.70;;;20.40;99.90;;;;;;5022455;28;20060;-74
2023/06/22 07:53:14;;;;;;;;;;;20.50;99.90;;;;;;5027721;28;20114;-74
2023/06/22 07:55:40;;;;;;;19.75;11.60;;;20.60;99.90;;;;;;5021796;28;20382;-74
2023/06/22 07:58:06;;;;;;;18.88;11.60;;;20.60;99.90;;;;;;5012566;28;20033;-73
2023/06/22 08:00:34;;;;;;;18.70;11.98;;;20.70;99.90;;;;;;5022476;28;20467;-73
2023/06/22 08:02:59;;;;;;;23.67;14.32;;;20.80;99.90;;;;;;5026870;28;20216;-76
2023/06/22 08:05:26;;;;;;;20.23;13.55;;;20.80;99.90;;;;;;5021327;28;20467;-75
2023/06/22 08:07:51;;;;;;;;;;;20.90;99.90;;;;;;5025238;28;20505;-74
2023/06/22 08:10:17;;;;;;;18.77;12.23;;;21.00;99.90;;;;;;5001937;28;19917;-74
2023/06/22 08:12:43;;;;;;;;;;;21.00;99.90;;;;;;5027809;28;20123;-74
2023/06/22 08:15:09;;;;;;;21.25;13.45;;;21.10;99.90;;;;;;5018272;28;19924;-74
2023/06/22 08:17:37;;;;;;;19.77;12.35;;;21.20;99.90;;;;;;5007787;28;20044;-75
2023/06/22 08:20:09;;;;;;;17.42;10.60;;;21.30;99.90;;;;;;5004789;28;20033;-73
2023/06/22 08:22:36;;;;;;;17.25;10.70;;;21.40;99.90;;;;;;5025342;28;20217;-73
2023/06/22 08:25:03;;;;;;;20.02;11.18;;;21.40;99.90;;;;;;5025505;28;20133;-74
2023/06/22 08:27:31;;;;;;;17.92;10.57;;;21.50;99.90;;;;;;5007857;28;20041;-74
2023/06/22 08:30:00;;;;;;;18.55;11.10;;;21.60;99.90;;;;;;5024474;28;20116;-74
2023/06/22 08:32:27;;;;;;;20.20;10.82;;;21.70;99.90;;;;;;5022416;28;20080;-74
2023/06/22 08:34:54;;;;;;;12.82;8.98;;;21.80;99.90;;;;;;5018329;28;20049;-73
2023/06/22 08:37:20;;;;;;;14.90;7.57;;;21.80;99.90;;;;;;5017162;28;20390;-74
2023/06/22 08:39:46;;;;;;;;;;;22.00;99.90;;;;;;5006430;28;20559;-74
2023/06/22 08:42:12;;;;;;;12.98;8.52;;;22.00;99.90;;;;;;5023545;28;20290;-74
2023/06/22 08:44:38;;;;;;;;;;;22.10;99.90;;;;;;5030680;28;20048;-74
2023/06/22 08:47:04;;;;;;;14.90;7.82;;;22.10;99.90;;;;;;5022813;28;19917;-74
2023/06/22 08:49:29;;;;;;;;;;;22.20;99.90;;;;;;5022255;28;20172;-74
2023/06/22 08:51:56;;;;;;;12.05;7.13;;;22.30;99.90;;;;;;5003763;28;20004;-76
2023/06/22 08:54:22;;;;;;;12.52;7.72;;;22.40;99.90;;;;;;5016159;28;20069;-78
2023/06/22 08:56:48;;;;;;;;;;;22.50;99.90;;;;;;5013089;28;20042;-77
2023/06/22 08:59:14;;;;;;;11.80;7.28;;;22.60;99.90;;;;;;5028453;28;19917;-75
2023/06/22 09:01:39;;;;;;;;;;;22.70;99.90;;;;;;5028140;28;20104;-75
2023/06/22 09:04:07;;;;;;;14.93;7.43;;;22.70;99.90;;;;;;5025611;28;19917;-78
2023/06/22 09:06:32;;;;;;;9.73;6.40;;;22.80;99.90;;;;;;5020861;28;20050;-75
2023/06/22 09:09:01;;;;;;;;;;;22.90;99.90;;;;;;5025399;28;20056;-78
2023/06/22 09:11:27;;;;;;;10.60;6.35;;;23.00;99.90;;;;;;5026959;28;20370;-79
2023/06/22 09:13:53;;;;;;;;;;;23.10;99.90;;;;;;5028199;28;20048;-78
2023/06/22 09:16:19;;;;;;;11.32;6.72;;;23.20;99.90;;;;;;5027273;28;19965;-74
2023/06/22 09:18:48;;;;;;;;;;;23.30;99.90;;;;;;5021910;28;20065;-73
2023/06/22 09:21:13;;;;;;;10.02;6.32;;;23.30;99.90;;;;;;5021037;28;20012;-75
2023/06/22 09:23:39;;;;;;;;;;;23.40;99.90;;;;;;5016393;28;20180;-74
2023/06/22 09:26:05;;;;;;;8.43;5.75;;;23.50;99.90;;;;;;5009374;28;19924;-75
2023/06/22 09:28:30;;;;;;;;;;;23.60;99.90;;;;;;5023306;28;20101;-74
2023/06/22 09:30:58;;;;;;;15.40;7.07;;;23.70;99.90;;;;;;5019202;28;19952;-75
2023/06/22 09:33:25;;;;;;;11.90;7.28;;;23.70;99.90;;;;;;5006077;28;20131;-75
2023/06/22 09:35:50;;;;;;;11.48;6.72;;;23.80;99.90;;;;;;5015693;28;20060;-75
2023/06/22 09:38:16;;;;;;;19.95;11.43;;;23.90;99.90;;;;;;5005622;28;20053;-75
2023/06/22 09:40:42;;;;;;;11.73;6.30;;;24.00;99.90;;;;;;5007413;28;20445;-75
2023/06/22 09:43:08;;;;;;;9.57;6.38;;;24.10;99.90;;;;;;5014506;28;20053;-75
2023/06/22 09:45:34;;;;;;;;;;;24.20;99.90;;;;;;5024187;28;20372;-75
2023/06/22 09:48:00;;;;;;;10.40;6.28;;;24.30;99.90;;;;;;5024182;28;19940;-75
2023/06/22 09:50:25;;;;;;;10.23;7.07;;;24.40;99.90;;;;;;5021401;28;20037;-76
2023/06/22 09:52:54;;;;;;;9.75;6.25;;;24.50;99.90;;;;;;5008381;28;20133;-75
2023/06/22 09:55:21;;;;;;;9.80;6.40;;;24.60;99.90;;;;;;5024202;28;20050;-75
2023/06/22 09:57:47;;;;;;;10.05;6.65;;;24.60;99.90;;;;;;5021335;28;20042;-76
2023/06/22 10:00:14;;;;;;;12.90;7.07;;;24.50;99.90;;;;;;5021528;28;20406;-74
2023/06/22 10:02:41;;;;;;;8.85;5.38;;;24.60;99.90;;;;;;5019891;28;20060;-76
2023/06/22 10:05:07;;;;;;;9.13;5.85;;;24.70;99.90;;;;;;5023854;28;20099;-76
2023/06/22 10:07:33;;;;;;;7.88;5.22;;;24.80;99.90;;;;;;5019161;28;20041;-76
2023/06/22 10:09:59;;;;;;;7.90;5.57;;;24.80;99.90;;;;;;5026158;28;20048;-75
2023/06/22 10:12:27;;;;;;;10.30;6.30;;;24.90;99.90;;;;;;5012798;28;20547;-76
2023/06/22 10:14:53;;;;;;;8.77;6.13;;;24.80;99.90;;;;;;5021936;28;20295;-76
2023/06/22 10:17:18;;;;;;;8.27;5.68;;;24.90;99.90;;;;;;5009607;28;20088;-76
2023/06/22 10:19:44;;;;;;;9.23;5.18;;;24.90;99.90;;;;;;5018960;28;20095;-76
2023/06/22 10:22:10;;;;;;;7.13;5.25;;;25.00;99.90;;;;;;5021493;28;20129;-76
2023/06/22 10:24:35;;;;;;;10.73;5.47;;;25.10;99.90;;;;;;5021130;28;20049;-75
2023/06/22 10:27:01;;;;;;;7.85;4.60;;;25.20;99.90;;;;;;5017356;28;20221;-76
2023/06/22 10:29:27;;;;;;;7.68;4.65;;;25.30;99.90;;;;;;5022953;28;20045;-75
2023/06/22 10:31:52;;;;;;;6.40;4.20;;;25.40;99.90;;;;;;5025263;28;20523;-76
2023/06/22 10:34:18;;;;;;;8.63;4.60;;;25.50;99.90;;;;;;5021683;28;20115;-76
2023/06/22 10:36:47;;;;;;;6.35;4.10;;;25.60;99.90;;;;;;5015243;28;20037;-76
2023/06/22 10:39:12;;;;;;;6.97;4.03;;;25.70;99.90;;;;;;5025283;28;20080;-75
2023/06/22 10:41:38;;;;;;;8.38;4.53;;;25.80;99.90;;;;;;5017428;28;20077;-76
2023/06/22 10:44:04;;;;;;;6.32;3.90;;;25.90;99.90;;;;;;5019716;28;20046;-76
2023/06/22 10:46:29;;;;;;;6.13;3.53;;;26.00;99.90;;;;;;5020630;28;20044;-76
2023/06/22 10:48:56;;;;;;;6.05;3.88;;;26.10;99.90;;;;;;5010004;28;20049;-76
2023/06/22 10:51:22;;;;;;;5.75;3.50;;;26.10;99.90;;;;;;4999735;28;20060;-76
2023/06/22 10:53:48;;;;;;;5.35;3.67;;;26.20;99.90;;;;;;5002995;28;20045;-76
2023/06/22 10:56:14;;;;;;;6.18;3.67;;;26.20;99.90;;;;;;5024568;28;20048;-76
2023/06/22 10:58:39;;;;;;;6.97;3.50;;;26.20;99.90;;;;;;5024943;28;20116;-76
2023/06/22 11:01:05;;;;;;;7.20;3.88;;;26.30;99.90;;;;;;5026647;28;20136;-76
2023/06/22 11:03:30;;;;;;;7.47;3.97;;;26.30;99.90;;;;;;5027078;28;20396;-76
2023/06/22 11:05:56;;;;;;;5.55;3.40;;;26.40;99.90;;;;;;5025149;28;20475;-76
2023/06/22 11:08:22;;;;;;;6.65;3.58;;;26.40;99.90;;;;;;5022478;28;20124;-76
2023/06/22 11:10:47;;;;;;;10.02;3.25;;;26.40;99.90;;;;;;5029588;28;20558;-76
2023/06/22 11:13:13;;;;;;;5.97;3.65;;;26.40;99.90;;;;;;5021173;28;20041;-76
2023/06/22 11:15:39;;;;;;;4.18;2.90;;;26.50;99.90;;;;;;5022680;28;20034;-76
2023/06/22 11:18:06;;;;;;;5.80;3.30;;;26.50;99.90;;;;;;5012216;28;20045;-76
2023/06/22 11:20:34;;;;;;;5.38;3.00;;;26.60;99.90;;;;;;5026266;28;20116;-76
2023/06/22 11:23:00;;;;;;;7.03;3.10;;;26.60;99.90;;;;;;5028664;28;20037;-76
2023/06/22 11:25:25;;;;;;;4.82;2.55;;;26.60;99.90;;;;;;5009159;28;20033;-76
2023/06/22 11:27:53;;;;;;;5.88;3.30;;;26.60;99.90;;;;;;5020769;28;20049;-76
2023/06/22 11:30:19;;;;;;;6.00;3.15;;;26.60;99.90;;;;;;5027290;28;20045;-76
2023/06/22 11:32:45;;;;;;;6.78;3.45;;;26.60;99.90;;;;;;5025491;28;20041;-76
2023/06/22 11:35:11;;;;;;;6.43;3.45;;;26.60;99.90;;;;;;5024240;28;20053;-76
2023/06/22 11:37:36;;;;;;;5.35;2.85;;;26.50;99.90;;;;;;5007282;28;20393;-76
2023/06/22 11:40:05;;;;;;;3.83;2.63;;;26.50;99.90;;;;;;5024679;28;20116;-76
2023/06/22 11:42:31;;;;;;;6.25;3.13;;;26.50;99.90;;;;;;5006038;28;20123;-76
2023/06/22 11:44:56;;;;;;;4.30;2.90;;;26.60;99.90;;;;;;5025598;28;20087;-76
2023/06/22 11:47:22;;;;;;;4.70;3.20;;;26.50;99.90;;;;;;5026903;28;20055;-76
2023/06/22 11:49:47;;;;;;;5.05;3.03;;;26.50;99.90;;;;;;5027650;28;20112;-76
2023/06/22 11:52:13;;;;;;;6.43;3.47;;;26.40;99.90;;;;;;5024276;28;20050;-76
2023/06/22 11:54:39;;;;;;;5.20;2.90;;;26.30;99.90;;;;;;5026727;28;20434;-76
2023/06/22 11:57:05;;;;;;;5.47;3.10;;;26.30;99.90;;;;;;5023289;28;20114;-76
2023/06/22 11:59:30;;;;;;;4.75;3.13;;;26.20;99.90;;;;;;5023495;28;20495;-76
2023/06/22 12:01:58;;;;;;;4.55;2.80;;;26.10;99.90;;;;;;5025417;28;20041;-76
2023/06/22 12:04:23;;;;;;;7.15;4.18;;;26.10;99.90;;;;;;5024302;28;20601;-75
2023/06/22 12:06:49;;;;;;;4.88;3.08;;;26.10;99.90;;;;;;5026154;28;20075;-76
2023/06/22 12:09:15;;;;;;;5.57;3.40;;;26.10;99.90;;;;;;5020443;28;20499;-75
2023/06/22 12:11:40;;;;;;;8.32;3.88;;;26.10;99.90;;;;;;5019748;28;20192;-76
2023/06/22 12:14:06;;;;;;;5.88;3.35;;;26.10;99.90;;;;;;5018770;28;20045;-75
2023/06/22 12:16:32;;;;;;;8.27;3.72;;;26.10;99.90;;;;;;5004484;28;20049;-75
2023/06/22 12:18:57;;;;;;;6.25;3.55;;;26.00;99.90;;;;;;5022691;28;20172;-76
2023/06/22 12:21:23;;;;;;;7.15;3.42;;;26.00;99.90;;;;;;5023125;28;20297;-75
2023/06/22 12:23:49;;;;;;;5.78;3.53;;;25.90;99.90;;;;;;5018598;28;20087;-75
2023/06/22 12:26:15;;;;;;;6.72;4.00;;;25.90;99.90;;;;;;5024111;28;20041;-75
2023/06/22 12:28:41;;;;;;;8.30;5.10;;;25.90;99.90;;;;;;5011070;28;20073;-76
2023/06/22 12:31:06;;;;;;;7.20;4.38;;;25.90;99.90;;;;;;5021763;28;20084;-76
2023/06/22 12:33:32;;;;;;;6.65;4.22;;;25.90;99.90;;;;;;5005492;28;20081;-76
2023/06/22 12:35:58;;;;;;;8.32;5.10;;;25.90;99.90;;;;;;5021485;28;20052;-76
2023/06/22 12:38:26;;;;;;;6.22;4.40;;;25.90;99.90;;;;;;5023844;28;20034;-76